Terminal Aerodrome Forecast
Issued by NWS Wilmington, OH

Current Version | Previous Version | Graphics & Text | Print | Product List | Glossary On
Versions: 1 2 3 4 5 6 7 8 9 10 11 12 13 14 15 16 17 18 19
000
FTUS41 KILN 030500 RRA
TAFDAY
TAF
KDAY 030545Z 0306/0406 12006KT P6SM SCT120 OVC250
     FM031100 13006KT P6SM -FZRA OVC035
     FM031400 15011KT P6SM OVC022
     FM031700 18012G20KT 5SM -SHRA BR BKN015 OVC035
     FM032200 24014G22KT 4SM -SHRA BR BKN010 OVC030
     FM040300 26012KT 5SM BR OVC012=

USA.gov is the U.S. government's official web portal to all federal, state and local government web resources and services.